NKI weather

Naukati Bay Seaplane Base
Tuxekan Island, Alaska, United States

Public forecast

Using degrees Fahrenheit for public forecast. Weather courtesy of forecast.io.

METAR (pilot weather report)

Closest report is Klawock Airport, 17.0 nm (31.5 km) SSE. Retrieved 2019/07/24 07:17 UTC (27 minutes ago):

PAKW 240717Z AUTO 14006KT 10SM FEW029 BKN039 OVC070 14/13 A3002 RMK T01390128 TSNO VIA AUTODIAL

TAF (pilot weather forecast)

Closest forecast is Klawock Airport, 17.0 nm (31.5 km) SSE. Retrieved 2019/07/24 06:39 UTC (1 hour ago):

TAF PAKW 240537Z 2406/2506 16006KT P6SM VCSH SCT015 SCT030 OVC040 TEMPO 2406/2410 3SM -RA BR BKN010 OVC025 FM241000 14006KT P6SM -RA SCT010 BKN025 OVC040 TEMPO 2410/2414 3SM -RA BR FEW006 OVC010 FM242100 21008KT P6SM VCSH SCT025 BKN040 BKN060 PROB30 2421/2503 -SHRA BKN025 OVC040 AMD LTD TO CLD VIS AND WIND